sensor_id;sensor_type;location;lat;lon;timestamp;temperature;humidity
20081;DHT22;10200;49.232;9.222;2022-11-11T00:01:12;6.80;99.90
20081;DHT22;10200;49.232;9.222;2022-11-11T00:03:39;6.80;99.90
20081;DHT22;10200;49.232;9.222;2022-11-11T00:06:10;6.80;99.90
20081;DHT22;10200;49.232;9.222;2022-11-11T00:08:36;6.70;99.90
20081;DHT22;10200;49.232;9.222;2022-11-11T00:11:03;6.70;99.90
20081;DHT22;10200;49.232;9.222;2022-11-11T00:13:30;6.70;99.90
20081;DHT22;10200;49.232;9.222;2022-11-11T00:16:02;6.70;99.90
20081;DHT22;10200;49.232;9.222;2022-11-11T00:18:27;6.70;99.90
20081;DHT22;10200;49.232;9.222;2022-11-11T00:21:12;6.70;99.90
20081;DHT22;10200;49.232;9.222;2022-11-11T00:23:57;6.60;99.90
20081;DHT22;10200;49.232;9.222;2022-11-11T00:26:41;6.60;99.90
20081;DHT22;10200;49.232;9.222;2022-11-11T00:29:06;6.50;99.90
20081;DHT22;10200;49.232;9.222;2022-11-11T00:31:34;6.50;99.90
20081;DHT22;10200;49.232;9.222;2022-11-11T00:34:00;6.50;99.90
20081;DHT22;10200;49.232;9.222;2022-11-11T00:36:25;6.60;99.90
20081;DHT22;10200;49.232;9.222;2022-11-11T00:38:51;6.50;99.90
20081;DHT22;10200;49.232;9.222;2022-11-11T00:41:21;6.60;99.90
20081;DHT22;10200;49.232;9.222;2022-11-11T00:43:47;6.70;99.90
20081;DHT22;10200;49.232;9.222;2022-11-11T00:46:14;6.70;99.90
20081;DHT22;10200;49.232;9.222;2022-11-11T00:48:59;6.70;99.90
20081;DHT22;10200;49.232;9.222;2022-11-11T00:51:44;6.70;99.90
20081;DHT22;10200;49.232;9.222;2022-11-11T00:54:10;6.70;99.90
20081;DHT22;10200;49.232;9.222;2022-11-11T00:56:36;6.80;99.90
20081;DHT22;10200;49.232;9.222;2022-11-11T00:59:03;6.80;99.90
20081;DHT22;10200;49.232;9.222;2022-11-11T01:01:29;6.80;99.90
20081;DHT22;10200;49.232;9.222;2022-11-11T01:03:56;6.80;99.90
20081;DHT22;10200;49.232;9.222;2022-11-11T01:06:21;6.80;99.90
20081;DHT22;10200;49.232;9.222;2022-11-11T01:08:47;6.80;99.90
20081;DHT22;10200;49.232;9.222;2022-11-11T01:11:14;6.80;99.90
20081;DHT22;10200;49.232;9.222;2022-11-11T01:13:41;6.70;99.90
20081;DHT22;10200;49.232;9.222;2022-11-11T01:16:10;6.70;99.90
20081;DHT22;10200;49.232;9.222;2022-11-11T01:18:36;6.70;99.90
20081;DHT22;10200;49.232;9.222;2022-11-11T01:21:07;6.60;99.90
20081;DHT22;10200;49.232;9.222;2022-11-11T01:23:37;6.70;99.90
20081;DHT22;10200;49.232;9.222;2022-11-11T01:26:13;6.70;99.90
20081;DHT22;10200;49.232;9.222;2022-11-11T01:28:39;6.60;99.90
20081;DHT22;10200;49.232;9.222;2022-11-11T01:31:08;6.60;99.90
20081;DHT22;10200;49.232;9.222;2022-11-11T01:33:34;6.70;99.90
20081;DHT22;10200;49.232;9.222;2022-11-11T01:38:30;6.70;99.90
20081;DHT22;10200;49.232;9.222;2022-11-11T01:40:55;6.70;99.90
20081;DHT22;10200;49.232;9.222;2022-11-11T01:43:23;6.80;99.90
20081;DHT22;10200;49.232;9.222;2022-11-11T01:48:28;6.80;99.90
20081;DHT22;10200;49.232;9.222;2022-11-11T01:53:48;6.70;99.90
20081;DHT22;10200;49.232;9.222;2022-11-11T01:56:16;6.80;99.90
20081;DHT22;10200;49.232;9.222;2022-11-11T01:58:42;6.70;99.90
20081;DHT22;10200;49.232;9.222;2022-11-11T02:01:08;6.70;99.90
20081;DHT22;10200;49.232;9.222;2022-11-11T02:03:40;6.70;99.90
20081;DHT22;10200;49.232;9.222;2022-11-11T02:06:06;6.80;99.90
20081;DHT22;10200;49.232;9.222;2022-11-11T02:08:34;6.70;99.90
20081;DHT22;10200;49.232;9.222;2022-11-11T02:11:08;6.80;99.90
20081;DHT22;10200;49.232;9.222;2022-11-11T02:13:38;6.70;99.90
20081;DHT22;10200;49.232;9.222;2022-11-11T02:16:23;6.80;99.90
20081;DHT22;10200;49.232;9.222;2022-11-11T02:18:49;6.80;99.90
20081;DHT22;10200;49.232;9.222;2022-11-11T02:21:36;6.80;99.90
20081;DHT22;10200;49.232;9.222;2022-11-11T02:24:07;6.80;99.90
20081;DHT22;10200;49.232;9.222;2022-11-11T02:26:35;6.80;99.90
20081;DHT22;10200;49.232;9.222;2022-11-11T02:29:04;6.70;99.90
20081;DHT22;10200;49.232;9.222;2022-11-11T02:31:32;6.70;99.90
20081;DHT22;10200;49.232;9.222;2022-11-11T02:33:58;6.80;99.90
20081;DHT22;10200;49.232;9.222;2022-11-11T02:36:24;6.80;99.90
20081;DHT22;10200;49.232;9.222;2022-11-11T02:38:50;6.70;99.90
20081;DHT22;10200;49.232;9.222;2022-11-11T02:41:16;6.80;99.90
20081;DHT22;10200;49.232;9.222;2022-11-11T02:44:00;6.70;99.90
20081;DHT22;10200;49.232;9.222;2022-11-11T02:46:26;6.70;99.90
20081;DHT22;10200;49.232;9.222;2022-11-11T02:48:52;6.60;99.90
20081;DHT22;10200;49.232;9.222;2022-11-11T02:51:17;6.60;99.90
20081;DHT22;10200;49.232;9.222;2022-11-11T02:53:43;6.50;99.90
20081;DHT22;10200;49.232;9.222;2022-11-11T02:56:08;6.50;99.90
20081;DHT22;10200;49.232;9.222;2022-11-11T02:58:34;6.50;99.90
20081;DHT22;10200;49.232;9.222;2022-11-11T03:01:00;6.50;99.90
20081;DHT22;10200;49.232;9.222;2022-11-11T03:03:25;6.40;99.90
20081;DHT22;10200;49.232;9.222;2022-11-11T03:05:51;6.50;99.90
20081;DHT22;10200;49.232;9.222;2022-11-11T03:08:17;6.50;99.90
20081;DHT22;10200;49.232;9.222;2022-11-11T03:10:42;6.50;99.90
20081;DHT22;10200;49.232;9.222;2022-11-11T03:13:08;6.40;99.90
20081;DHT22;10200;49.232;9.222;2022-11-11T03:15:33;6.40;99.90
20081;DHT22;10200;49.232;9.222;2022-11-11T03:17:59;6.40;99.90
20081;DHT22;10200;49.232;9.222;2022-11-11T03:20:25;6.40;99.90
20081;DHT22;10200;49.232;9.222;2022-11-11T03:23:14;6.30;99.90
20081;DHT22;10200;49.232;9.222;2022-11-11T03:25:45;6.30;99.90
20081;DHT22;10200;49.232;9.222;2022-11-11T03:28:20;6.30;99.90
20081;DHT22;10200;49.232;9.222;2022-11-11T03:30:47;6.20;99.90
20081;DHT22;10200;49.232;9.222;2022-11-11T03:33:14;6.20;99.90
20081;DHT22;10200;49.232;9.222;2022-11-11T03:35:41;6.10;99.90
20081;DHT22;10200;49.232;9.222;2022-11-11T03:38:09;6.20;99.90
20081;DHT22;10200;49.232;9.222;2022-11-11T03:40:55;6.10;99.90
20081;DHT22;10200;49.232;9.222;2022-11-11T03:43:26;6.20;99.90
20081;DHT22;10200;49.232;9.222;2022-11-11T03:45:54;6.10;99.90
20081;DHT22;10200;49.232;9.222;2022-11-11T03:48:20;6.10;99.90
20081;DHT22;10200;49.232;9.222;2022-11-11T03:50:47;6.10;99.90
20081;DHT22;10200;49.232;9.222;2022-11-11T03:53:13;6.10;99.90
20081;DHT22;10200;49.232;9.222;2022-11-11T03:55:40;6.10;99.90
20081;DHT22;10200;49.232;9.222;2022-11-11T03:58:06;6.10;99.90
20081;DHT22;10200;49.232;9.222;2022-11-11T04:00:32;6.00;99.90
20081;DHT22;10200;49.232;9.222;2022-11-11T04:05:46;6.10;99.90
20081;DHT22;10200;49.232;9.222;2022-11-11T04:08:30;6.10;99.90
20081;DHT22;10200;49.232;9.222;2022-11-11T04:11:27;6.10;99.90
20081;DHT22;10200;49.232;9.222;2022-11-11T04:13:54;6.20;99.90
20081;DHT22;10200;49.232;9.222;2022-11-11T04:16:40;6.20;99.90
20081;DHT22;10200;49.232;9.222;2022-11-11T04:19:06;6.20;99.90
20081;DHT22;10200;49.232;9.222;2022-11-11T04:21:50;6.20;99.90
20081;DHT22;10200;49.232;9.222;2022-11-11T04:24:18;6.20;99.90
20081;DHT22;10200;49.232;9.222;2022-11-11T04:27:08;6.20;99.90
20081;DHT22;10200;49.232;9.222;2022-11-11T04:29:34;6.20;99.90
20081;DHT22;10200;49.232;9.222;2022-11-11T04:32:03;6.20;99.90
20081;DHT22;10200;49.232;9.222;2022-11-11T04:34:50;6.20;99.90
20081;DHT22;10200;49.232;9.222;2022-11-11T04:37:16;6.20;99.90
20081;DHT22;10200;49.232;9.222;2022-11-11T04:39:42;6.20;99.90
20081;DHT22;10200;49.232;9.222;2022-11-11T04:42:27;6.10;99.90
20081;DHT22;10200;49.232;9.222;2022-11-11T04:44:54;6.20;99.90
20081;DHT22;10200;49.232;9.222;2022-11-11T04:47:50;6.20;99.90
20081;DHT22;10200;49.232;9.222;2022-11-11T04:50:16;6.10;99.90
20081;DHT22;10200;49.232;9.222;2022-11-11T04:52:42;6.10;99.90
20081;DHT22;10200;49.232;9.222;2022-11-11T04:55:07;6.00;99.90
20081;DHT22;10200;49.232;9.222;2022-11-11T04:57:51;6.00;99.90
20081;DHT22;10200;49.232;9.222;2022-11-11T05:00:18;5.90;99.90
20081;DHT22;10200;49.232;9.222;2022-11-11T05:02:44;5.90;99.90
20081;DHT22;10200;49.232;9.222;2022-11-11T05:05:29;5.90;99.90
20081;DHT22;10200;49.232;9.222;2022-11-11T05:08:13;5.90;99.90
20081;DHT22;10200;49.232;9.222;2022-11-11T05:10:57;5.90;99.90
20081;DHT22;10200;49.232;9.222;2022-11-11T05:13:23;5.90;99.90
20081;DHT22;10200;49.232;9.222;2022-11-11T05:16:18;5.90;99.90
20081;DHT22;10200;49.232;9.222;2022-11-11T05:19:03;5.90;99.90
20081;DHT22;10200;49.232;9.222;2022-11-11T05:21:47;5.90;99.90
20081;DHT22;10200;49.232;9.222;2022-11-11T05:24:13;5.90;99.90
20081;DHT22;10200;49.232;9.222;2022-11-11T05:26:58;5.80;99.90
20081;DHT22;10200;49.232;9.222;2022-11-11T05:29:24;5.80;99.90
20081;DHT22;10200;49.232;9.222;2022-11-11T05:31:49;5.80;99.90
20081;DHT22;10200;49.232;9.222;2022-11-11T05:34:15;5.80;99.90
20081;DHT22;10200;49.232;9.222;2022-11-11T05:36:40;5.80;99.90
20081;DHT22;10200;49.232;9.222;2022-11-11T05:39:06;5.80;99.90
20081;DHT22;10200;49.232;9.222;2022-11-11T05:41:31;5.70;99.90
20081;DHT22;10200;49.232;9.222;2022-11-11T05:43:59;5.70;99.90
20081;DHT22;10200;49.232;9.222;2022-11-11T05:46:26;5.70;99.90
20081;DHT22;10200;49.232;9.222;2022-11-11T05:48:52;5.70;99.90
20081;DHT22;10200;49.232;9.222;2022-11-11T05:51:36;5.70;99.90
20081;DHT22;10200;49.232;9.222;2022-11-11T05:54:02;5.70;99.90
20081;DHT22;10200;49.232;9.222;2022-11-11T05:56:27;5.70;99.90
20081;DHT22;10200;49.232;9.222;2022-11-11T05:58:53;5.70;99.90
20081;DHT22;10200;49.232;9.222;2022-11-11T06:01:19;5.60;99.90
20081;DHT22;10200;49.232;9.222;2022-11-11T06:03:44;5.60;99.90
20081;DHT22;10200;49.232;9.222;2022-11-11T06:06:10;5.60;99.90
20081;DHT22;10200;49.232;9.222;2022-11-11T06:08:36;5.60;99.90
20081;DHT22;10200;49.232;9.222;2022-11-11T06:11:02;5.50;99.90
20081;DHT22;10200;49.232;9.222;2022-11-11T06:13:27;5.50;99.90
20081;DHT22;10200;49.232;9.222;2022-11-11T06:15:55;5.50;99.90
20081;DHT22;10200;49.232;9.222;2022-11-11T06:18:21;5.50;99.90
20081;DHT22;10200;49.232;9.222;2022-11-11T06:20:55;5.50;99.90
20081;DHT22;10200;49.232;9.222;2022-11-11T06:23:21;5.50;99.90
20081;DHT22;10200;49.232;9.222;2022-11-11T06:25:47;5.50;99.90
20081;DHT22;10200;49.232;9.222;2022-11-11T06:28:32;5.40;99.90
20081;DHT22;10200;49.232;9.222;2022-11-11T06:30:57;5.40;99.90
20081;DHT22;10200;49.232;9.222;2022-11-11T06:33:23;5.40;99.90
20081;DHT22;10200;49.232;9.222;2022-11-11T06:35:49;5.50;99.90
20081;DHT22;10200;49.232;9.222;2022-11-11T06:38:15;5.40;99.90
20081;DHT22;10200;49.232;9.222;2022-11-11T06:40:44;5.40;99.90
20081;DHT22;10200;49.232;9.222;2022-11-11T06:43:10;5.40;99.90
20081;DHT22;10200;49.232;9.222;2022-11-11T06:45:36;5.40;99.90
20081;DHT22;10200;49.232;9.222;2022-11-11T06:48:02;5.40;99.90
20081;DHT22;10200;49.232;9.222;2022-11-11T06:50:29;5.40;99.90
20081;DHT22;10200;49.232;9.222;2022-11-11T06:52:54;5.40;99.90
20081;DHT22;10200;49.232;9.222;2022-11-11T06:55:20;5.40;99.90
20081;DHT22;10200;49.232;9.222;2022-11-11T06:57:46;5.50;99.90
20081;DHT22;10200;49.232;9.222;2022-11-11T07:00:12;5.50;99.90
20081;DHT22;10200;49.232;9.222;2022-11-11T07:02:38;5.60;99.90
20081;DHT22;10200;49.232;9.222;2022-11-11T07:05:04;5.70;99.90
20081;DHT22;10200;49.232;9.222;2022-11-11T07:07:30;5.70;99.90
20081;DHT22;10200;49.232;9.222;2022-11-11T07:09:56;5.80;99.90
20081;DHT22;10200;49.232;9.222;2022-11-11T07:12:22;5.80;99.90
20081;DHT22;10200;49.232;9.222;2022-11-11T07:14:47;5.80;99.90
20081;DHT22;10200;49.232;9.222;2022-11-11T07:17:13;5.80;99.90
20081;DHT22;10200;49.232;9.222;2022-11-11T07:19:39;5.90;99.90
20081;DHT22;10200;49.232;9.222;2022-11-11T07:22:04;5.90;99.90
20081;DHT22;10200;49.232;9.222;2022-11-11T07:24:30;5.90;99.90
20081;DHT22;10200;49.232;9.222;2022-11-11T07:26:55;5.90;99.90
20081;DHT22;10200;49.232;9.222;2022-11-11T07:29:21;5.90;99.90
20081;DHT22;10200;49.232;9.222;2022-11-11T07:31:47;5.90;99.90
20081;DHT22;10200;49.232;9.222;2022-11-11T07:34:12;5.90;99.90
20081;DHT22;10200;49.232;9.222;2022-11-11T07:36:38;6.00;99.90
20081;DHT22;10200;49.232;9.222;2022-11-11T07:39:03;6.00;99.90
20081;DHT22;10200;49.232;9.222;2022-11-11T07:41:29;6.00;99.90
20081;DHT22;10200;49.232;9.222;2022-11-11T07:43:54;6.00;99.90
20081;DHT22;10200;49.232;9.222;2022-11-11T07:46:20;6.00;99.90
20081;DHT22;10200;49.232;9.222;2022-11-11T07:48:46;6.00;99.90
20081;DHT22;10200;49.232;9.222;2022-11-11T07:51:11;6.00;99.90
20081;DHT22;10200;49.232;9.222;2022-11-11T07:53:37;6.10;99.90
20081;DHT22;10200;49.232;9.222;2022-11-11T07:56:02;6.10;99.90
20081;DHT22;10200;49.232;9.222;2022-11-11T07:58:28;6.10;99.90
20081;DHT22;10200;49.232;9.222;2022-11-11T08:00:54;6.10;99.90
20081;DHT22;10200;49.232;9.222;2022-11-11T08:03:19;6.20;99.90
20081;DHT22;10200;49.232;9.222;2022-11-11T08:05:45;6.20;99.90
20081;DHT22;10200;49.232;9.222;2022-11-11T08:08:10;6.30;99.90
20081;DHT22;10200;49.232;9.222;2022-11-11T08:10:36;6.20;99.90
20081;DHT22;10200;49.232;9.222;2022-11-11T08:13:02;6.30;99.90
20081;DHT22;10200;49.232;9.222;2022-11-11T08:15:47;6.30;99.90
20081;DHT22;10200;49.232;9.222;2022-11-11T08:18:15;6.30;99.90
20081;DHT22;10200;49.232;9.222;2022-11-11T08:20:40;6.30;99.90
20081;DHT22;10200;49.232;9.222;2022-11-11T08:23:06;6.40;99.90
20081;DHT22;10200;49.232;9.222;2022-11-11T08:25:35;6.50;99.90
20081;DHT22;10200;49.232;9.222;2022-11-11T08:28:03;6.60;99.90
20081;DHT22;10200;49.232;9.222;2022-11-11T08:30:29;6.80;99.90
20081;DHT22;10200;49.232;9.222;2022-11-11T08:33:03;6.90;99.90
20081;DHT22;10200;49.232;9.222;2022-11-11T08:35:30;7.00;99.90
20081;DHT22;10200;49.232;9.222;2022-11-11T08:38:00;7.10;99.90
20081;DHT22;10200;49.232;9.222;2022-11-11T08:40:26;7.20;99.90
20081;DHT22;10200;49.232;9.222;2022-11-11T08:42:55;7.40;99.90
20081;DHT22;10200;49.232;9.222;2022-11-11T08:45:22;7.50;99.90
20081;DHT22;10200;49.232;9.222;2022-11-11T08:47:47;7.60;99.90
20081;DHT22;10200;49.232;9.222;2022-11-11T08:50:13;7.70;99.90
20081;DHT22;10200;49.232;9.222;2022-11-11T08:52:45;7.70;99.90
20081;DHT22;10200;49.232;9.222;2022-11-11T08:55:11;7.90;99.90
20081;DHT22;10200;49.232;9.222;2022-11-11T08:57:36;8.00;99.90
20081;DHT22;10200;49.232;9.222;2022-11-11T09:00:03;8.30;99.90
20081;DHT22;10200;49.232;9.222;2022-11-11T09:02:29;8.50;99.90
20081;DHT22;10200;49.232;9.222;2022-11-11T09:04:55;8.60;99.90
20081;DHT22;10200;49.232;9.222;2022-11-11T09:07:20;8.70;99.90
20081;DHT22;10200;49.232;9.222;2022-11-11T09:09:46;8.80;99.90
20081;DHT22;10200;49.232;9.222;2022-11-11T09:12:11;8.70;99.90
20081;DHT22;10200;49.232;9.222;2022-11-11T09:14:37;8.80;99.90
20081;DHT22;10200;49.232;9.222;2022-11-11T09:17:02;8.80;99.90
20081;DHT22;10200;49.232;9.222;2022-11-11T09:19:28;8.70;99.90
20081;DHT22;10200;49.232;9.222;2022-11-11T09:21:53;8.70;99.90
20081;DHT22;10200;49.232;9.222;2022-11-11T09:24:19;8.70;99.90
20081;DHT22;10200;49.232;9.222;2022-11-11T09:26:47;8.60;99.90
20081;DHT22;10200;49.232;9.222;2022-11-11T09:29:13;8.60;99.90
20081;DHT22;10200;49.232;9.222;2022-11-11T09:31:39;8.60;99.90
20081;DHT22;10200;49.232;9.222;2022-11-11T09:34:04;8.60;99.90
20081;DHT22;10200;49.232;9.222;2022-11-11T09:36:31;8.60;99.90
20081;DHT22;10200;49.232;9.222;2022-11-11T09:38:57;8.70;99.90
20081;DHT22;10200;49.232;9.222;2022-11-11T09:44:35;8.70;99.90
20081;DHT22;10200;49.232;9.222;2022-11-11T09:47:15;8.70;99.90
20081;DHT22;10200;49.232;9.222;2022-11-11T09:50:00;8.70;99.90
20081;DHT22;10200;49.232;9.222;2022-11-11T09:52:46;8.70;99.90
20081;DHT22;10200;49.232;9.222;2022-11-11T09:55:19;8.70;99.90
20081;DHT22;10200;49.232;9.222;2022-11-11T10:00:21;8.70;99.90
20081;DHT22;10200;49.232;9.222;2022-11-11T10:02:56;8.80;99.90
20081;DHT22;10200;49.232;9.222;2022-11-11T10:05:33;8.80;99.90
20081;DHT22;10200;49.232;9.222;2022-11-11T10:10:51;9.10;99.90
20081;DHT22;10200;49.232;9.222;2022-11-11T10:13:28;9.20;99.90
20081;DHT22;10200;49.232;9.222;2022-11-11T10:18:43;9.50;99.90
20081;DHT22;10200;49.232;9.222;2022-11-11T10:21:14;9.60;99.90
20081;DHT22;10200;49.232;9.222;2022-11-11T10:23:45;9.60;99.90
20081;DHT22;10200;49.232;9.222;2022-11-11T10:26:19;9.60;99.90
20081;DHT22;10200;49.232;9.222;2022-11-11T10:28:47;9.70;99.90
20081;DHT22;10200;49.232;9.222;2022-11-11T10:31:18;9.80;99.90
20081;DHT22;10200;49.232;9.222;2022-11-11T10:34:04;9.80;99.90
20081;DHT22;10200;49.232;9.222;2022-11-11T10:36:30;9.90;99.90
20081;DHT22;10200;49.232;9.222;2022-11-11T10:39:00;9.90;99.90
20081;DHT22;10200;49.232;9.222;2022-11-11T10:41:38;9.90;99.90
20081;DHT22;10200;49.232;9.222;2022-11-11T10:44:26;10.00;99.90
20081;DHT22;10200;49.232;9.222;2022-11-11T10:49:36;10.20;99.90
20081;DHT22;10200;49.232;9.222;2022-11-11T10:52:26;10.30;99.90
20081;DHT22;10200;49.232;9.222;2022-11-11T10:55:03;10.30;99.90
20081;DHT22;10200;49.232;9.222;2022-11-11T10:57:54;10.30;99.90
20081;DHT22;10200;49.232;9.222;2022-11-11T11:00:22;10.30;99.90
20081;DHT22;10200;49.232;9.222;2022-11-11T11:02:58;10.30;99.90
20081;DHT22;10200;49.232;9.222;2022-11-11T11:08:10;10.30;99.90
20081;DHT22;10200;49.232;9.222;2022-11-11T11:10:41;10.30;99.90
20081;DHT22;10200;49.232;9.222;2022-11-11T11:13:26;10.30;99.90
20081;DHT22;10200;49.232;9.222;2022-11-11T11:15:57;10.40;99.90
20081;DHT22;10200;49.232;9.222;2022-11-11T11:18:24;10.50;99.90
20081;DHT22;10200;49.232;9.222;2022-11-11T11:20:58;10.40;99.90
20081;DHT22;10200;49.232;9.222;2022-11-11T11:23:45;10.50;99.90
20081;DHT22;10200;49.232;9.222;2022-11-11T11:26:13;10.50;99.90
20081;DHT22;10200;49.232;9.222;2022-11-11T11:29:05;10.60;99.90
20081;DHT22;10200;49.232;9.222;2022-11-11T11:31:40;10.60;99.90
20081;DHT22;10200;49.232;9.222;2022-11-11T11:34:07;10.70;99.90
20081;DHT22;10200;49.232;9.222;2022-11-11T11:36:33;10.70;99.90
20081;DHT22;10200;49.232;9.222;2022-11-11T11:38:58;10.70;99.90
20081;DHT22;10200;49.232;9.222;2022-11-11T11:41:42;10.80;99.90
20081;DHT22;10200;49.232;9.222;2022-11-11T11:46:52;11.00;99.90
20081;DHT22;10200;49.232;9.222;2022-11-11T11:55:05;11.10;99.90
20081;DHT22;10200;49.232;9.222;2022-11-11T12:05:47;11.30;99.90
20081;DHT22;10200;49.232;9.222;2022-11-11T12:11:22;11.40;99.90
20081;DHT22;10200;49.232;9.222;2022-11-11T12:14:02;11.40;99.90
20081;DHT22;10200;49.232;9.222;2022-11-11T12:19:11;11.50;99.90
20081;DHT22;10200;49.232;9.222;2022-11-11T12:24:27;11.50;99.90
20081;DHT22;10200;49.232;9.222;2022-11-11T12:27:54;11.60;99.90
20081;DHT22;10200;49.232;9.222;2022-11-11T12:30:09;11.60;99.90
20081;DHT22;10200;49.232;9.222;2022-11-11T12:43:44;11.70;99.90
20081;DHT22;10200;49.232;9.222;2022-11-11T12:46:28;11.80;99.90
20081;DHT22;10200;49.232;9.222;2022-11-11T12:52:28;11.90;99.90
20081;DHT22;10200;49.232;9.222;2022-11-11T12:55:12;12.00;99.90
20081;DHT22;10200;49.232;9.222;2022-11-11T13:00:23;12.20;99.90
20081;DHT22;10200;49.232;9.222;2022-11-11T13:11:20;12.40;99.90
20081;DHT22;10200;49.232;9.222;2022-11-11T13:16:40;12.30;99.90
20081;DHT22;10200;49.232;9.222;2022-11-11T13:19:16;12.30;99.90
20081;DHT22;10200;49.232;9.222;2022-11-11T13:22:07;12.20;99.90
20081;DHT22;10200;49.232;9.222;2022-11-11T13:24:36;12.20;99.90
20081;DHT22;10200;49.232;9.222;2022-11-11T13:30:05;12.30;99.90
20081;DHT22;10200;49.232;9.222;2022-11-11T13:32:49;12.30;99.90
20081;DHT22;10200;49.232;9.222;2022-11-11T13:35:30;12.20;99.90
20081;DHT22;10200;49.232;9.222;2022-11-11T13:37:57;12.20;99.90
20081;DHT22;10200;49.232;9.222;2022-11-11T13:40:36;12.30;99.90
20081;DHT22;10200;49.232;9.222;2022-11-11T13:43:05;12.30;99.90
20081;DHT22;10200;49.232;9.222;2022-11-11T13:45:41;12.20;99.90
20081;DHT22;10200;49.232;9.222;2022-11-11T13:48:23;12.20;99.90
20081;DHT22;10200;49.232;9.222;2022-11-11T13:50:50;12.10;99.90
20081;DHT22;10200;49.232;9.222;2022-11-11T13:53:31;12.10;99.90
20081;DHT22;10200;49.232;9.222;2022-11-11T13:56:02;12.10;99.90
20081;DHT22;10200;49.232;9.222;2022-11-11T13:58:36;12.10;99.90
20081;DHT22;10200;49.232;9.222;2022-11-11T14:01:08;12.20;99.90
20081;DHT22;10200;49.232;9.222;2022-11-11T14:13:50;12.10;99.90
20081;DHT22;10200;49.232;9.222;2022-11-11T14:21:56;12.10;99.90
20081;DHT22;10200;49.232;9.222;2022-11-11T14:24:43;12.10;99.90
20081;DHT22;10200;49.232;9.222;2022-11-11T14:29:48;12.10;99.90
20081;DHT22;10200;49.232;9.222;2022-11-11T14:32:32;12.10;99.90
20081;DHT22;10200;49.232;9.222;2022-11-11T14:35:13;12.10;99.90
20081;DHT22;10200;49.232;9.222;2022-11-11T14:38:33;12.10;99.90
20081;DHT22;10200;49.232;9.222;2022-11-11T14:40:51;12.10;99.90
20081;DHT22;10200;49.232;9.222;2022-11-11T14:43:37;12.10;99.90
20081;DHT22;10200;49.232;9.222;2022-11-11T14:46:10;12.10;99.90
20081;DHT22;10200;49.232;9.222;2022-11-11T14:48:53;12.10;99.90
20081;DHT22;10200;49.232;9.222;2022-11-11T14:54:32;12.10;99.90
20081;DHT22;10200;49.232;9.222;2022-11-11T14:57:04;12.00;99.90
20081;DHT22;10200;49.232;9.222;2022-11-11T14:59:31;12.00;99.90
20081;DHT22;10200;49.232;9.222;2022-11-11T15:01:58;12.00;99.90
20081;DHT22;10200;49.232;9.222;2022-11-11T15:04:25;11.90;99.90
20081;DHT22;10200;49.232;9.222;2022-11-11T15:06:59;11.90;99.90
20081;DHT22;10200;49.232;9.222;2022-11-11T15:15:14;11.70;99.90
20081;DHT22;10200;49.232;9.222;2022-11-11T15:20:58;11.70;99.90
20081;DHT22;10200;49.232;9.222;2022-11-11T15:29:03;11.50;99.90
20081;DHT22;10200;49.232;9.222;2022-11-11T15:32:03;11.50;99.90
20081;DHT22;10200;49.232;9.222;2022-11-11T15:34:46;11.40;99.90
20081;DHT22;10200;49.232;9.222;2022-11-11T15:37:17;11.30;99.90
20081;DHT22;10200;49.232;9.222;2022-11-11T15:39:51;11.20;99.90
20081;DHT22;10200;49.232;9.222;2022-11-11T15:42:30;11.20;99.90
20081;DHT22;10200;49.232;9.222;2022-11-11T15:45:01;11.10;99.90
20081;DHT22;10200;49.232;9.222;2022-11-11T15:47:29;11.10;99.90
20081;DHT22;10200;49.232;9.222;2022-11-11T15:50:00;11.00;99.90
20081;DHT22;10200;49.232;9.222;2022-11-11T15:52:31;11.00;99.90
20081;DHT22;10200;49.232;9.222;2022-11-11T15:54:58;10.90;99.90
20081;DHT22;10200;49.232;9.222;2022-11-11T15:57:32;10.80;99.90
20081;DHT22;10200;49.232;9.222;2022-11-11T15:59:59;10.80;99.90
20081;DHT22;10200;49.232;9.222;2022-11-11T16:02:28;10.70;99.90
20081;DHT22;10200;49.232;9.222;2022-11-11T16:04:55;10.70;99.90
20081;DHT22;10200;49.232;9.222;2022-11-11T16:07:24;10.60;99.90
20081;DHT22;10200;49.232;9.222;2022-11-11T16:09:52;10.60;99.90
20081;DHT22;10200;49.232;9.222;2022-11-11T16:12:25;10.50;99.90
20081;DHT22;10200;49.232;9.222;2022-11-11T16:14:53;10.40;99.90
20081;DHT22;10200;49.232;9.222;2022-11-11T16:17:25;10.30;99.90
20081;DHT22;10200;49.232;9.222;2022-11-11T16:19:52;10.30;99.90
20081;DHT22;10200;49.232;9.222;2022-11-11T16:22:25;10.20;99.90
20081;DHT22;10200;49.232;9.222;2022-11-11T16:24:52;10.10;99.90
20081;DHT22;10200;49.232;9.222;2022-11-11T16:27:23;10.00;99.90
20081;DHT22;10200;49.232;9.222;2022-11-11T16:29:50;10.00;99.90
20081;DHT22;10200;49.232;9.222;2022-11-11T16:34:45;9.90;99.90
20081;DHT22;10200;49.232;9.222;2022-11-11T16:37:13;9.70;99.90
20081;DHT22;10200;49.232;9.222;2022-11-11T16:39:43;9.70;99.90
20081;DHT22;10200;49.232;9.222;2022-11-11T16:42:23;9.70;99.90
20081;DHT22;10200;49.232;9.222;2022-11-11T16:44:52;9.60;99.90
20081;DHT22;10200;49.232;9.222;2022-11-11T16:47:40;9.60;99.90
20081;DHT22;10200;49.232;9.222;2022-11-11T16:50:21;9.50;99.90
20081;DHT22;10200;49.232;9.222;2022-11-11T16:55:19;9.50;99.90
20081;DHT22;10200;49.232;9.222;2022-11-11T16:57:46;9.40;99.90
20081;DHT22;10200;49.232;9.222;2022-11-11T17:00:15;9.40;99.90
20081;DHT22;10200;49.232;9.222;2022-11-11T17:02:41;9.30;99.90
20081;DHT22;10200;49.232;9.222;2022-11-11T17:05:07;9.30;99.90
20081;DHT22;10200;49.232;9.222;2022-11-11T17:10:10;9.20;99.90
20081;DHT22;10200;49.232;9.222;2022-11-11T17:12:37;9.20;99.90
20081;DHT22;10200;49.232;9.222;2022-11-11T17:15:04;9.20;99.90
20081;DHT22;10200;49.232;9.222;2022-11-11T17:17:30;9.20;99.90
20081;DHT22;10200;49.232;9.222;2022-11-11T17:19:57;9.10;99.90
20081;DHT22;10200;49.232;9.222;2022-11-11T17:22:24;9.10;99.90
20081;DHT22;10200;49.232;9.222;2022-11-11T17:24:50;9.00;99.90
20081;DHT22;10200;49.232;9.222;2022-11-11T17:29:41;8.90;99.90
20081;DHT22;10200;49.232;9.222;2022-11-11T17:32:07;8.90;99.90
20081;DHT22;10200;49.232;9.222;2022-11-11T17:34:32;8.80;99.90
20081;DHT22;10200;49.232;9.222;2022-11-11T17:36:58;8.80;99.90
20081;DHT22;10200;49.232;9.222;2022-11-11T17:39:23;8.80;99.90
20081;DHT22;10200;49.232;9.222;2022-11-11T17:41:49;8.70;99.90
20081;DHT22;10200;49.232;9.222;2022-11-11T17:44:15;8.70;99.90
20081;DHT22;10200;49.232;9.222;2022-11-11T17:46:40;8.70;99.90
20081;DHT22;10200;49.232;9.222;2022-11-11T17:49:06;8.60;99.90
20081;DHT22;10200;49.232;9.222;2022-11-11T17:51:32;8.50;99.90
20081;DHT22;10200;49.232;9.222;2022-11-11T17:53:58;8.50;99.90
20081;DHT22;10200;49.232;9.222;2022-11-11T17:56:24;8.50;99.90
20081;DHT22;10200;49.232;9.222;2022-11-11T17:58:51;8.50;99.90
20081;DHT22;10200;49.232;9.222;2022-11-11T18:01:17;8.40;99.90
20081;DHT22;10200;49.232;9.222;2022-11-11T18:03:43;8.30;99.90
20081;DHT22;10200;49.232;9.222;2022-11-11T18:06:09;8.30;99.90
20081;DHT22;10200;49.232;9.222;2022-11-11T18:08:35;8.30;99.90
20081;DHT22;10200;49.232;9.222;2022-11-11T18:11:03;8.30;99.90
20081;DHT22;10200;49.232;9.222;2022-11-11T18:13:29;8.20;99.90